sensor_id;sensor_type;location;lat;lon;timestamp;P1;durP1;ratioP1;P2;durP2;ratioP2
55483;SDS011;41345;51.704;5.146;2023-03-21T00:01:33;57.58;;;51.85;;
55483;SDS011;41345;51.704;5.146;2023-03-21T00:06:33;56.67;;;51.30;;
55483;SDS011;41345;51.704;5.146;2023-03-21T00:11:35;56.20;;;50.97;;
55483;SDS011;41345;51.704;5.146;2023-03-21T00:16:35;57.05;;;50.85;;
55483;SDS011;41345;51.704;5.146;2023-03-21T00:21:36;57.45;;;51.95;;
55483;SDS011;41345;51.704;5.146;2023-03-21T00:26:37;55.28;;;50.10;;
55483;SDS011;41345;51.704;5.146;2023-03-21T00:31:37;56.95;;;51.75;;
55483;SDS011;41345;51.704;5.146;2023-03-21T00:36:38;56.67;;;50.67;;
55483;SDS011;41345;51.704;5.146;2023-03-21T00:41:38;57.47;;;51.93;;
55483;SDS011;41345;51.704;5.146;2023-03-21T00:46:39;59.03;;;53.30;;
55483;SDS011;41345;51.704;5.146;2023-03-21T00:51:39;60.13;;;54.35;;
55483;SDS011;41345;51.704;5.146;2023-03-21T00:56:42;60.65;;;54.72;;
55483;SDS011;41345;51.704;5.146;2023-03-21T01:01:42;61.50;;;55.17;;
55483;SDS011;41345;51.704;5.146;2023-03-21T01:06:45;63.63;;;57.17;;
55483;SDS011;41345;51.704;5.146;2023-03-21T01:11:46;62.50;;;56.00;;
55483;SDS011;41345;51.704;5.146;2023-03-21T01:16:47;65.20;;;58.65;;
55483;SDS011;41345;51.704;5.146;2023-03-21T01:21:47;67.97;;;60.78;;
55483;SDS011;41345;51.704;5.146;2023-03-21T01:26:47;64.95;;;58.35;;
55483;SDS011;41345;51.704;5.146;2023-03-21T01:31:48;65.07;;;58.17;;
55483;SDS011;41345;51.704;5.146;2023-03-21T01:36:48;64.07;;;57.10;;
55483;SDS011;41345;51.704;5.146;2023-03-21T01:41:48;62.80;;;56.20;;
55483;SDS011;41345;51.704;5.146;2023-03-21T01:46:50;59.53;;;53.50;;
55483;SDS011;41345;51.704;5.146;2023-03-21T01:51:58;57.90;;;52.50;;
55483;SDS011;41345;51.704;5.146;2023-03-21T01:57:00;57.72;;;51.72;;
55483;SDS011;41345;51.704;5.146;2023-03-21T02:02:03;57.17;;;51.55;;
55483;SDS011;41345;51.704;5.146;2023-03-21T02:07:07;58.40;;;52.47;;
55483;SDS011;41345;51.704;5.146;2023-03-21T02:12:08;57.00;;;50.85;;
55483;SDS011;41345;51.704;5.146;2023-03-21T02:27:54;53.00;;;48.17;;
55483;SDS011;41345;51.704;5.146;2023-03-21T02:48:26;51.40;;;46.57;;
55483;SDS011;41345;51.704;5.146;2023-03-21T02:53:26;49.90;;;45.08;;
55483;SDS011;41345;51.704;5.146;2023-03-21T02:58:27;50.42;;;45.45;;
55483;SDS011;41345;51.704;5.146;2023-03-21T03:03:29;49.28;;;44.65;;
55483;SDS011;41345;51.704;5.146;2023-03-21T03:14:00;45.17;;;41.42;;
55483;SDS011;41345;51.704;5.146;2023-03-21T03:19:06;46.33;;;41.92;;
55483;SDS011;41345;51.704;5.146;2023-03-21T03:24:28;45.13;;;41.10;;
55483;SDS011;41345;51.704;5.146;2023-03-21T03:29:30;45.72;;;42.05;;
55483;SDS011;41345;51.704;5.146;2023-03-21T03:34:32;43.75;;;39.83;;
55483;SDS011;41345;51.704;5.146;2023-03-21T03:39:39;44.03;;;40.33;;
55483;SDS011;41345;51.704;5.146;2023-03-21T03:44:40;44.25;;;40.03;;
55483;SDS011;41345;51.704;5.146;2023-03-21T03:49:42;44.90;;;40.92;;
55483;SDS011;41345;51.704;5.146;2023-03-21T03:54:45;45.88;;;41.53;;
55483;SDS011;41345;51.704;5.146;2023-03-21T03:59:46;43.53;;;39.75;;
55483;SDS011;41345;51.704;5.146;2023-03-21T04:04:46;42.70;;;38.95;;
55483;SDS011;41345;51.704;5.146;2023-03-21T04:09:47;45.17;;;40.85;;
55483;SDS011;41345;51.704;5.146;2023-03-21T04:14:48;43.17;;;39.70;;
55483;SDS011;41345;51.704;5.146;2023-03-21T04:19:48;43.65;;;39.47;;
55483;SDS011;41345;51.704;5.146;2023-03-21T04:24:50;42.35;;;38.72;;
55483;SDS011;41345;51.704;5.146;2023-03-21T04:29:52;43.65;;;39.83;;
55483;SDS011;41345;51.704;5.146;2023-03-21T04:34:52;44.60;;;40.83;;
55483;SDS011;41345;51.704;5.146;2023-03-21T04:39:55;44.40;;;40.40;;
55483;SDS011;41345;51.704;5.146;2023-03-21T04:44:56;42.30;;;38.70;;
55483;SDS011;41345;51.704;5.146;2023-03-21T04:49:56;44.07;;;40.47;;
55483;SDS011;41345;51.704;5.146;2023-03-21T04:54:56;41.90;;;38.47;;
55483;SDS011;41345;51.704;5.146;2023-03-21T04:59:57;43.22;;;39.50;;
55483;SDS011;41345;51.704;5.146;2023-03-21T05:04:57;43.55;;;39.58;;
55483;SDS011;41345;51.704;5.146;2023-03-21T05:09:58;43.13;;;39.20;;
55483;SDS011;41345;51.704;5.146;2023-03-21T05:14:58;41.72;;;37.97;;
55483;SDS011;41345;51.704;5.146;2023-03-21T05:19:59;41.92;;;38.40;;
55483;SDS011;41345;51.704;5.146;2023-03-21T05:24:59;46.83;;;42.85;;
55483;SDS011;41345;51.704;5.146;2023-03-21T05:30:13;43.53;;;39.92;;
55483;SDS011;41345;51.704;5.146;2023-03-21T05:35:13;43.97;;;39.88;;
55483;SDS011;41345;51.704;5.146;2023-03-21T05:40:14;43.13;;;39.03;;
55483;SDS011;41345;51.704;5.146;2023-03-21T05:45:14;41.40;;;37.73;;
55483;SDS011;41345;51.704;5.146;2023-03-21T05:50:15;42.27;;;38.23;;
55483;SDS011;41345;51.704;5.146;2023-03-21T05:55:15;42.20;;;38.35;;
55483;SDS011;41345;51.704;5.146;2023-03-21T06:00:16;41.75;;;38.10;;
55483;SDS011;41345;51.704;5.146;2023-03-21T06:05:17;42.30;;;38.40;;
55483;SDS011;41345;51.704;5.146;2023-03-21T06:10:17;42.40;;;38.63;;
55483;SDS011;41345;51.704;5.146;2023-03-21T06:15:17;43.47;;;39.33;;
55483;SDS011;41345;51.704;5.146;2023-03-21T06:20:18;41.40;;;37.78;;
55483;SDS011;41345;51.704;5.146;2023-03-21T06:25:18;40.95;;;37.30;;
55483;SDS011;41345;51.704;5.146;2023-03-21T06:30:19;42.85;;;39.03;;
55483;SDS011;41345;51.704;5.146;2023-03-21T06:35:19;40.33;;;36.53;;
55483;SDS011;41345;51.704;5.146;2023-03-21T06:40:20;41.28;;;37.45;;
55483;SDS011;41345;51.704;5.146;2023-03-21T06:45:20;40.13;;;36.50;;
55483;SDS011;41345;51.704;5.146;2023-03-21T06:50:21;40.33;;;36.90;;
55483;SDS011;41345;51.704;5.146;2023-03-21T06:55:21;39.10;;;35.63;;
55483;SDS011;41345;51.704;5.146;2023-03-21T07:00:25;43.88;;;40.33;;
55483;SDS011;41345;51.704;5.146;2023-03-21T07:05:26;44.35;;;40.50;;
55483;SDS011;41345;51.704;5.146;2023-03-21T07:10:26;43.13;;;39.58;;
55483;SDS011;41345;51.704;5.146;2023-03-21T07:15:26;43.20;;;39.10;;
55483;SDS011;41345;51.704;5.146;2023-03-21T07:20:27;41.60;;;37.93;;
55483;SDS011;41345;51.704;5.146;2023-03-21T07:25:27;39.47;;;36.42;;
55483;SDS011;41345;51.704;5.146;2023-03-21T07:30:28;42.97;;;39.70;;
55483;SDS011;41345;51.704;5.146;2023-03-21T07:35:28;41.17;;;37.60;;
55483;SDS011;41345;51.704;5.146;2023-03-21T07:40:28;42.30;;;38.95;;
55483;SDS011;41345;51.704;5.146;2023-03-21T07:45:29;44.92;;;41.00;;
55483;SDS011;41345;51.704;5.146;2023-03-21T07:50:29;44.72;;;40.75;;
55483;SDS011;41345;51.704;5.146;2023-03-21T07:55:29;43.72;;;39.78;;
55483;SDS011;41345;51.704;5.146;2023-03-21T08:00:33;47.90;;;43.70;;
55483;SDS011;41345;51.704;5.146;2023-03-21T08:05:34;45.33;;;41.57;;
55483;SDS011;41345;51.704;5.146;2023-03-21T08:10:35;45.00;;;41.17;;
55483;SDS011;41345;51.704;5.146;2023-03-21T08:15:35;45.80;;;41.83;;
55483;SDS011;41345;51.704;5.146;2023-03-21T08:20:36;47.13;;;42.90;;
55483;SDS011;41345;51.704;5.146;2023-03-21T08:25:37;47.65;;;43.28;;
55483;SDS011;41345;51.704;5.146;2023-03-21T08:30:37;48.33;;;43.72;;
55483;SDS011;41345;51.704;5.146;2023-03-21T08:35:38;46.90;;;42.63;;
55483;SDS011;41345;51.704;5.146;2023-03-21T08:40:38;43.70;;;39.65;;
55483;SDS011;41345;51.704;5.146;2023-03-21T08:45:39;43.60;;;39.88;;
55483;SDS011;41345;51.704;5.146;2023-03-21T08:50:39;43.67;;;40.03;;
55483;SDS011;41345;51.704;5.146;2023-03-21T08:55:40;44.92;;;40.97;;
55483;SDS011;41345;51.704;5.146;2023-03-21T09:00:40;43.30;;;39.60;;
55483;SDS011;41345;51.704;5.146;2023-03-21T09:05:40;43.53;;;39.83;;
55483;SDS011;41345;51.704;5.146;2023-03-21T09:10:41;41.40;;;37.78;;
55483;SDS011;41345;51.704;5.146;2023-03-21T09:15:41;44.00;;;40.33;;
55483;SDS011;41345;51.704;5.146;2023-03-21T09:20:41;39.45;;;35.95;;
55483;SDS011;41345;51.704;5.146;2023-03-21T09:25:44;39.08;;;35.63;;
55483;SDS011;41345;51.704;5.146;2023-03-21T09:30:44;37.90;;;34.75;;
55483;SDS011;41345;51.704;5.146;2023-03-21T09:35:44;40.15;;;36.70;;
55483;SDS011;41345;51.704;5.146;2023-03-21T09:51:01;35.67;;;32.73;;
55483;SDS011;41345;51.704;5.146;2023-03-21T09:56:03;33.20;;;30.50;;
55483;SDS011;41345;51.704;5.146;2023-03-21T10:01:08;33.10;;;30.23;;
55483;SDS011;41345;51.704;5.146;2023-03-21T10:06:10;31.90;;;29.30;;
55483;SDS011;41345;51.704;5.146;2023-03-21T10:11:19;31.45;;;28.95;;
55483;SDS011;41345;51.704;5.146;2023-03-21T10:21:26;28.20;;;25.52;;
55483;SDS011;41345;51.704;5.146;2023-03-21T10:26:26;27.95;;;25.45;;
55483;SDS011;41345;51.704;5.146;2023-03-21T10:31:29;23.38;;;21.45;;
55483;SDS011;41345;51.704;5.146;2023-03-21T10:36:30;26.13;;;23.70;;
55483;SDS011;41345;51.704;5.146;2023-03-21T10:41:32;27.58;;;25.20;;
55483;SDS011;41345;51.704;5.146;2023-03-21T10:46:33;22.40;;;20.27;;
55483;SDS011;41345;51.704;5.146;2023-03-21T10:51:35;23.48;;;21.48;;
55483;SDS011;41345;51.704;5.146;2023-03-21T10:56:37;18.73;;;16.98;;
55483;SDS011;41345;51.704;5.146;2023-03-21T11:01:40;22.08;;;19.83;;
55483;SDS011;41345;51.704;5.146;2023-03-21T11:06:41;14.82;;;12.45;;
55483;SDS011;41345;51.704;5.146;2023-03-21T11:11:49;19.27;;;16.10;;
55483;SDS011;41345;51.704;5.146;2023-03-21T11:16:51;14.80;;;12.85;;
55483;SDS011;41345;51.704;5.146;2023-03-21T11:21:51;15.95;;;12.90;;
55483;SDS011;41345;51.704;5.146;2023-03-21T11:26:52;16.48;;;10.68;;
55483;SDS011;41345;51.704;5.146;2023-03-21T11:37:18;16.70;;;6.88;;
55483;SDS011;41345;51.704;5.146;2023-03-21T11:42:29;17.05;;;8.70;;
55483;SDS011;41345;51.704;5.146;2023-03-21T11:47:30;14.40;;;6.97;;
55483;SDS011;41345;51.704;5.146;2023-03-21T11:52:34;17.40;;;10.65;;
55483;SDS011;41345;51.704;5.146;2023-03-21T11:57:43;14.15;;;8.80;;
55483;SDS011;41345;51.704;5.146;2023-03-21T12:02:56;14.77;;;8.13;;
55483;SDS011;41345;51.704;5.146;2023-03-21T12:23:42;12.05;;;5.53;;
55483;SDS011;41345;51.704;5.146;2023-03-21T12:28:52;15.07;;;5.43;;
55483;SDS011;41345;51.704;5.146;2023-03-21T12:44:14;7.93;;;4.75;;
55483;SDS011;41345;51.704;5.146;2023-03-21T12:54:25;12.33;;;4.70;;
55483;SDS011;41345;51.704;5.146;2023-03-21T12:59:36;11.52;;;4.88;;
55483;SDS011;41345;51.704;5.146;2023-03-21T13:04:45;12.25;;;5.18;;
55483;SDS011;41345;51.704;5.146;2023-03-21T13:09:46;9.48;;;5.47;;
55483;SDS011;41345;51.704;5.146;2023-03-21T13:14:51;11.65;;;5.50;;
55483;SDS011;41345;51.704;5.146;2023-03-21T13:19:57;13.88;;;5.38;;
55483;SDS011;41345;51.704;5.146;2023-03-21T13:45:22;9.35;;;5.38;;
55483;SDS011;41345;51.704;5.146;2023-03-21T13:50:28;12.02;;;5.30;;
55483;SDS011;41345;51.704;5.146;2023-03-21T13:55:35;11.95;;;6.30;;
55483;SDS011;41345;51.704;5.146;2023-03-21T14:00:40;9.10;;;5.30;;
55483;SDS011;41345;51.704;5.146;2023-03-21T14:05:40;13.38;;;6.22;;
55483;SDS011;41345;51.704;5.146;2023-03-21T14:10:42;12.25;;;7.28;;
55483;SDS011;41345;51.704;5.146;2023-03-21T14:15:45;10.48;;;6.43;;
55483;SDS011;41345;51.704;5.146;2023-03-21T14:20:56;13.35;;;7.20;;
55483;SDS011;41345;51.704;5.146;2023-03-21T14:25:57;11.15;;;6.45;;
55483;SDS011;41345;51.704;5.146;2023-03-21T14:30:58;10.20;;;6.13;;
55483;SDS011;41345;51.704;5.146;2023-03-21T14:36:01;11.80;;;6.20;;
55483;SDS011;41345;51.704;5.146;2023-03-21T14:41:02;10.07;;;5.77;;
55483;SDS011;41345;51.704;5.146;2023-03-21T14:46:03;12.15;;;6.40;;
55483;SDS011;41345;51.704;5.146;2023-03-21T14:51:04;10.35;;;6.40;;
55483;SDS011;41345;51.704;5.146;2023-03-21T14:56:23;10.77;;;6.72;;
55483;SDS011;41345;51.704;5.146;2023-03-21T15:01:28;10.82;;;6.15;;
55483;SDS011;41345;51.704;5.146;2023-03-21T15:06:30;14.43;;;6.55;;
55483;SDS011;41345;51.704;5.146;2023-03-21T15:11:35;10.32;;;5.75;;
55483;SDS011;41345;51.704;5.146;2023-03-21T15:16:36;13.05;;;6.30;;
55483;SDS011;41345;51.704;5.146;2023-03-21T15:21:37;11.05;;;6.20;;
55483;SDS011;41345;51.704;5.146;2023-03-21T15:26:44;9.57;;;6.10;;
55483;SDS011;41345;51.704;5.146;2023-03-21T15:31:46;12.27;;;7.20;;
55483;SDS011;41345;51.704;5.146;2023-03-21T15:36:47;10.95;;;6.30;;
55483;SDS011;41345;51.704;5.146;2023-03-21T15:47:07;10.55;;;6.78;;
55483;SDS011;41345;51.704;5.146;2023-03-21T15:52:12;12.98;;;7.95;;
55483;SDS011;41345;51.704;5.146;2023-03-21T15:57:18;12.88;;;8.18;;
55483;SDS011;41345;51.704;5.146;2023-03-21T16:02:20;12.23;;;8.40;;
55483;SDS011;41345;51.704;5.146;2023-03-21T16:07:22;12.65;;;8.88;;
55483;SDS011;41345;51.704;5.146;2023-03-21T16:12:22;14.32;;;10.57;;
55483;SDS011;41345;51.704;5.146;2023-03-21T16:22:26;18.35;;;16.45;;
55483;SDS011;41345;51.704;5.146;2023-03-21T16:27:27;25.27;;;22.77;;
55483;SDS011;41345;51.704;5.146;2023-03-21T16:32:28;30.47;;;27.43;;
55483;SDS011;41345;51.704;5.146;2023-03-21T16:37:28;25.83;;;23.53;;
55483;SDS011;41345;51.704;5.146;2023-03-21T16:42:28;26.67;;;24.48;;
55483;SDS011;41345;51.704;5.146;2023-03-21T16:47:28;23.13;;;21.27;;
55483;SDS011;41345;51.704;5.146;2023-03-21T16:52:29;24.88;;;22.95;;
55483;SDS011;41345;51.704;5.146;2023-03-21T16:57:30;23.50;;;21.70;;
55483;SDS011;41345;51.704;5.146;2023-03-21T17:02:30;22.45;;;20.65;;
55483;SDS011;41345;51.704;5.146;2023-03-21T17:07:30;19.88;;;18.10;;
55483;SDS011;41345;51.704;5.146;2023-03-21T17:12:31;22.08;;;20.17;;
55483;SDS011;41345;51.704;5.146;2023-03-21T17:17:31;23.93;;;21.93;;
55483;SDS011;41345;51.704;5.146;2023-03-21T17:22:31;25.20;;;23.17;;
55483;SDS011;41345;51.704;5.146;2023-03-21T17:27:32;24.52;;;22.65;;
55483;SDS011;41345;51.704;5.146;2023-03-21T17:32:32;24.17;;;22.25;;
55483;SDS011;41345;51.704;5.146;2023-03-21T17:37:32;24.70;;;22.80;;
55483;SDS011;41345;51.704;5.146;2023-03-21T17:42:33;23.60;;;21.70;;
55483;SDS011;41345;51.704;5.146;2023-03-21T17:47:33;23.45;;;21.65;;
55483;SDS011;41345;51.704;5.146;2023-03-21T17:52:34;24.10;;;22.30;;
55483;SDS011;41345;51.704;5.146;2023-03-21T17:57:36;26.80;;;24.27;;
55483;SDS011;41345;51.704;5.146;2023-03-21T18:02:40;27.08;;;24.88;;
55483;SDS011;41345;51.704;5.146;2023-03-21T18:07:41;27.30;;;24.97;;
55483;SDS011;41345;51.704;5.146;2023-03-21T18:12:41;24.65;;;22.50;;
55483;SDS011;41345;51.704;5.146;2023-03-21T18:17:42;26.15;;;24.05;;
55483;SDS011;41345;51.704;5.146;2023-03-21T18:22:43;25.45;;;23.67;;
55483;SDS011;41345;51.704;5.146;2023-03-21T18:27:44;32.33;;;29.92;;
55483;SDS011;41345;51.704;5.146;2023-03-21T18:32:44;27.50;;;25.50;;
55483;SDS011;41345;51.704;5.146;2023-03-21T18:37:45;30.38;;;28.27;;
55483;SDS011;41345;51.704;5.146;2023-03-21T18:42:46;28.48;;;26.45;;
55483;SDS011;41345;51.704;5.146;2023-03-21T18:47:47;28.33;;;26.30;;
55483;SDS011;41345;51.704;5.146;2023-03-21T18:52:47;28.05;;;26.05;;
55483;SDS011;41345;51.704;5.146;2023-03-21T18:57:47;27.38;;;25.15;;
55483;SDS011;41345;51.704;5.146;2023-03-21T19:02:49;25.92;;;23.90;;
55483;SDS011;41345;51.704;5.146;2023-03-21T19:07:50;26.05;;;23.85;;
55483;SDS011;41345;51.704;5.146;2023-03-21T19:12:51;27.85;;;25.50;;
55483;SDS011;41345;51.704;5.146;2023-03-21T19:17:52;27.20;;;25.13;;
55483;SDS011;41345;51.704;5.146;2023-03-21T19:22:53;28.27;;;25.98;;
55483;SDS011;41345;51.704;5.146;2023-03-21T19:27:53;28.02;;;25.85;;
55483;SDS011;41345;51.704;5.146;2023-03-21T19:32:53;35.13;;;32.72;;
55483;SDS011;41345;51.704;5.146;2023-03-21T19:37:54;31.38;;;28.95;;
55483;SDS011;41345;51.704;5.146;2023-03-21T19:42:54;30.80;;;28.40;;
55483;SDS011;41345;51.704;5.146;2023-03-21T19:47:55;29.30;;;27.20;;
55483;SDS011;41345;51.704;5.146;2023-03-21T19:52:55;30.88;;;28.83;;
55483;SDS011;41345;51.704;5.146;2023-03-21T19:57:56;36.45;;;33.55;;
55483;SDS011;41345;51.704;5.146;2023-03-21T20:02:56;31.85;;;29.65;;
55483;SDS011;41345;51.704;5.146;2023-03-21T20:07:56;32.47;;;30.15;;
55483;SDS011;41345;51.704;5.146;2023-03-21T20:12:56;35.38;;;32.53;;
55483;SDS011;41345;51.704;5.146;2023-03-21T20:17:57;35.97;;;32.80;;
55483;SDS011;41345;51.704;5.146;2023-03-21T20:22:57;34.33;;;31.90;;
55483;SDS011;41345;51.704;5.146;2023-03-21T20:27:58;35.22;;;32.45;;
55483;SDS011;41345;51.704;5.146;2023-03-21T20:32:59;34.38;;;31.67;;
55483;SDS011;41345;51.704;5.146;2023-03-21T20:37:59;35.67;;;32.93;;
55483;SDS011;41345;51.704;5.146;2023-03-21T20:42:59;38.25;;;35.47;;
55483;SDS011;41345;51.704;5.146;2023-03-21T20:48:00;36.35;;;33.50;;
55483;SDS011;41345;51.704;5.146;2023-03-21T20:53:02;36.83;;;34.08;;
55483;SDS011;41345;51.704;5.146;2023-03-21T20:58:02;34.38;;;31.85;;
55483;SDS011;41345;51.704;5.146;2023-03-21T21:03:03;36.92;;;34.00;;
55483;SDS011;41345;51.704;5.146;2023-03-21T21:08:04;36.58;;;33.88;;
55483;SDS011;41345;51.704;5.146;2023-03-21T21:13:04;38.13;;;35.17;;
55483;SDS011;41345;51.704;5.146;2023-03-21T21:18:06;39.00;;;35.80;;
55483;SDS011;41345;51.704;5.146;2023-03-21T21:23:07;40.13;;;37.03;;
55483;SDS011;41345;51.704;5.146;2023-03-21T21:28:07;39.22;;;36.53;;
55483;SDS011;41345;51.704;5.146;2023-03-21T21:33:07;36.90;;;34.17;;
55483;SDS011;41345;51.704;5.146;2023-03-21T21:38:08;34.28;;;31.58;;
55483;SDS011;41345;51.704;5.146;2023-03-21T21:43:08;32.17;;;29.67;;
55483;SDS011;41345;51.704;5.146;2023-03-21T21:48:11;27.65;;;25.55;;
55483;SDS011;41345;51.704;5.146;2023-03-21T21:53:12;19.85;;;18.05;;
55483;SDS011;41345;51.704;5.146;2023-03-21T21:58:13;17.38;;;11.98;;
55483;SDS011;41345;51.704;5.146;2023-03-21T22:03:17;13.35;;;12.15;;
55483;SDS011;41345;51.704;5.146;2023-03-21T22:08:21;16.07;;;14.67;;
55483;SDS011;41345;51.704;5.146;2023-03-21T22:13:22;17.27;;;15.65;;
55483;SDS011;41345;51.704;5.146;2023-03-21T22:18:22;14.75;;;13.25;;
55483;SDS011;41345;51.704;5.146;2023-03-21T22:23:22;17.23;;;13.80;;
55483;SDS011;41345;51.704;5.146;2023-03-21T22:28:25;15.23;;;13.60;;
55483;SDS011;41345;51.704;5.146;2023-03-21T22:33:25;16.57;;;15.00;;
55483;SDS011;41345;51.704;5.146;2023-03-21T22:38:26;18.45;;;16.55;;
55483;SDS011;41345;51.704;5.146;2023-03-21T22:43:27;17.00;;;15.40;;
55483;SDS011;41345;51.704;5.146;2023-03-21T22:48:27;17.63;;;15.93;;
55483;SDS011;41345;51.704;5.146;2023-03-21T22:53:29;17.27;;;15.82;;
55483;SDS011;41345;51.704;5.146;2023-03-21T22:58:29;16.83;;;15.23;;
55483;SDS011;41345;51.704;5.146;2023-03-21T23:03:29;16.65;;;14.40;;
55483;SDS011;41345;51.704;5.146;2023-03-21T23:08:30;16.60;;;14.70;;
55483;SDS011;41345;51.704;5.146;2023-03-21T23:13:30;16.05;;;14.40;;
55483;SDS011;41345;51.704;5.146;2023-03-21T23:18:31;19.07;;;15.73;;
55483;SDS011;41345;51.704;5.146;2023-03-21T23:23:31;16.38;;;14.75;;
55483;SDS011;41345;51.704;5.146;2023-03-21T23:28:35;18.70;;;15.80;;
55483;SDS011;41345;51.704;5.146;2023-03-21T23:33:36;16.60;;;15.23;;
55483;SDS011;41345;51.704;5.146;2023-03-21T23:38:36;20.10;;;17.02;;
55483;SDS011;41345;51.704;5.146;2023-03-21T23:43:36;17.38;;;15.75;;
55483;SDS011;41345;51.704;5.146;2023-03-21T23:48:37;18.67;;;16.88;;
55483;SDS011;41345;51.704;5.146;2023-03-21T23:53:38;19.25;;;17.42;;
55483;SDS011;41345;51.704;5.146;2023-03-21T23:58:38;20.23;;;18.33;;
